sensor_id;sensor_type;location;lat;lon;timestamp;temperature;humidity
9157;DHT22;4613;48.392;9.998;2022-08-19T00:01:41;19.80;99.90
9157;DHT22;4613;48.392;9.998;2022-08-19T00:04:14;19.80;99.90
9157;DHT22;4613;48.392;9.998;2022-08-19T00:06:46;19.80;99.90
9157;DHT22;4613;48.392;9.998;2022-08-19T00:09:21;19.90;99.90
9157;DHT22;4613;48.392;9.998;2022-08-19T00:11:53;20.00;99.90
9157;DHT22;4613;48.392;9.998;2022-08-19T00:14:26;19.90;99.90
9157;DHT22;4613;48.392;9.998;2022-08-19T00:16:58;19.90;99.90
9157;DHT22;4613;48.392;9.998;2022-08-19T00:19:29;19.90;99.90
9157;DHT22;4613;48.392;9.998;2022-08-19T00:22:00;19.90;99.90
9157;DHT22;4613;48.392;9.998;2022-08-19T00:24:33;19.90;99.90
9157;DHT22;4613;48.392;9.998;2022-08-19T00:27:04;19.90;99.90
9157;DHT22;4613;48.392;9.998;2022-08-19T00:29:35;19.80;99.90
9157;DHT22;4613;48.392;9.998;2022-08-19T00:32:07;19.60;99.90
9157;DHT22;4613;48.392;9.998;2022-08-19T00:34:38;19.60;99.90
9157;DHT22;4613;48.392;9.998;2022-08-19T00:37:09;19.30;99.90
9157;DHT22;4613;48.392;9.998;2022-08-19T00:39:40;19.10;99.90
9157;DHT22;4613;48.392;9.998;2022-08-19T00:42:11;19.00;99.90
9157;DHT22;4613;48.392;9.998;2022-08-19T00:44:42;19.30;99.90
9157;DHT22;4613;48.392;9.998;2022-08-19T00:47:13;19.40;99.90
9157;DHT22;4613;48.392;9.998;2022-08-19T00:49:48;19.40;99.90
9157;DHT22;4613;48.392;9.998;2022-08-19T00:52:32;19.60;99.90
9157;DHT22;4613;48.392;9.998;2022-08-19T00:55:06;19.70;99.90
9157;DHT22;4613;48.392;9.998;2022-08-19T00:57:45;19.70;99.90
9157;DHT22;4613;48.392;9.998;2022-08-19T01:00:19;19.50;99.90
9157;DHT22;4613;48.392;9.998;2022-08-19T01:02:50;19.50;99.90
9157;DHT22;4613;48.392;9.998;2022-08-19T01:05:26;19.60;99.90
9157;DHT22;4613;48.392;9.998;2022-08-19T01:08:00;19.50;99.90
9157;DHT22;4613;48.392;9.998;2022-08-19T01:10:37;19.40;99.90
9157;DHT22;4613;48.392;9.998;2022-08-19T01:13:10;19.30;99.90
9157;DHT22;4613;48.392;9.998;2022-08-19T01:16:07;19.50;99.90
9157;DHT22;4613;48.392;9.998;2022-08-19T01:18:41;19.40;99.90
9157;DHT22;4613;48.392;9.998;2022-08-19T01:21:22;19.60;99.90
9157;DHT22;4613;48.392;9.998;2022-08-19T01:23:54;19.60;99.90
9157;DHT22;4613;48.392;9.998;2022-08-19T01:26:26;19.60;99.90
9157;DHT22;4613;48.392;9.998;2022-08-19T01:28:59;19.70;99.90
9157;DHT22;4613;48.392;9.998;2022-08-19T01:31:31;19.40;99.90
9157;DHT22;4613;48.392;9.998;2022-08-19T01:34:02;19.10;99.90
9157;DHT22;4613;48.392;9.998;2022-08-19T01:36:40;19.10;99.90
9157;DHT22;4613;48.392;9.998;2022-08-19T01:39:19;19.20;99.90
9157;DHT22;4613;48.392;9.998;2022-08-19T01:41:51;19.50;99.90
9157;DHT22;4613;48.392;9.998;2022-08-19T01:44:24;19.40;99.90
9157;DHT22;4613;48.392;9.998;2022-08-19T01:46:55;19.50;99.90
9157;DHT22;4613;48.392;9.998;2022-08-19T01:49:26;19.60;99.90
9157;DHT22;4613;48.392;9.998;2022-08-19T01:52:00;19.30;99.90
9157;DHT22;4613;48.392;9.998;2022-08-19T01:54:32;19.20;99.90
9157;DHT22;4613;48.392;9.998;2022-08-19T01:57:06;18.80;99.90
9157;DHT22;4613;48.392;9.998;2022-08-19T01:59:40;18.90;99.90
9157;DHT22;4613;48.392;9.998;2022-08-19T02:02:11;19.00;99.90
9157;DHT22;4613;48.392;9.998;2022-08-19T02:04:42;18.80;99.90
9157;DHT22;4613;48.392;9.998;2022-08-19T02:07:13;18.90;99.90
9157;DHT22;4613;48.392;9.998;2022-08-19T02:09:44;18.90;99.90
9157;DHT22;4613;48.392;9.998;2022-08-19T02:12:15;18.90;99.90
9157;DHT22;4613;48.392;9.998;2022-08-19T02:14:47;19.20;99.90
9157;DHT22;4613;48.392;9.998;2022-08-19T02:17:17;18.70;99.90
9157;DHT22;4613;48.392;9.998;2022-08-19T02:19:48;18.80;99.90
9157;DHT22;4613;48.392;9.998;2022-08-19T02:22:20;19.10;99.90
9157;DHT22;4613;48.392;9.998;2022-08-19T02:24:52;18.80;99.90
9157;DHT22;4613;48.392;9.998;2022-08-19T02:27:23;18.70;99.90
9157;DHT22;4613;48.392;9.998;2022-08-19T02:29:54;18.60;99.90
9157;DHT22;4613;48.392;9.998;2022-08-19T02:32:25;18.80;99.90
9157;DHT22;4613;48.392;9.998;2022-08-19T02:34:56;18.60;99.90
9157;DHT22;4613;48.392;9.998;2022-08-19T02:37:27;18.80;99.90
9157;DHT22;4613;48.392;9.998;2022-08-19T02:40:16;19.00;99.90
9157;DHT22;4613;48.392;9.998;2022-08-19T02:42:49;19.10;99.90
9157;DHT22;4613;48.392;9.998;2022-08-19T02:45:20;19.00;99.90
9157;DHT22;4613;48.392;9.998;2022-08-19T02:47:51;19.00;99.90
9157;DHT22;4613;48.392;9.998;2022-08-19T02:50:22;19.20;99.90
9157;DHT22;4613;48.392;9.998;2022-08-19T02:52:52;19.00;99.90
9157;DHT22;4613;48.392;9.998;2022-08-19T02:55:23;18.80;99.90
9157;DHT22;4613;48.392;9.998;2022-08-19T02:57:54;18.90;99.90
9157;DHT22;4613;48.392;9.998;2022-08-19T03:00:26;19.10;99.90
9157;DHT22;4613;48.392;9.998;2022-08-19T03:02:57;19.00;99.90
9157;DHT22;4613;48.392;9.998;2022-08-19T03:05:31;19.00;99.90
9157;DHT22;4613;48.392;9.998;2022-08-19T03:08:02;18.90;99.90
9157;DHT22;4613;48.392;9.998;2022-08-19T03:10:40;19.00;99.90
9157;DHT22;4613;48.392;9.998;2022-08-19T03:13:17;18.70;99.90
9157;DHT22;4613;48.392;9.998;2022-08-19T03:15:49;19.00;99.90
9157;DHT22;4613;48.392;9.998;2022-08-19T03:18:19;18.80;99.90
9157;DHT22;4613;48.392;9.998;2022-08-19T03:20:52;18.90;99.90
9157;DHT22;4613;48.392;9.998;2022-08-19T03:23:26;19.00;99.90
9157;DHT22;4613;48.392;9.998;2022-08-19T03:25:57;18.90;99.90
9157;DHT22;4613;48.392;9.998;2022-08-19T03:28:28;18.60;99.90
9157;DHT22;4613;48.392;9.998;2022-08-19T03:31:03;18.60;99.90
9157;DHT22;4613;48.392;9.998;2022-08-19T03:33:35;18.60;99.90
9157;DHT22;4613;48.392;9.998;2022-08-19T03:36:12;18.80;99.90
9157;DHT22;4613;48.392;9.998;2022-08-19T03:38:50;18.90;99.90
9157;DHT22;4613;48.392;9.998;2022-08-19T03:41:25;18.70;99.90
9157;DHT22;4613;48.392;9.998;2022-08-19T03:43:56;18.90;99.90
9157;DHT22;4613;48.392;9.998;2022-08-19T03:46:29;18.80;99.90
9157;DHT22;4613;48.392;9.998;2022-08-19T03:49:03;18.70;99.90
9157;DHT22;4613;48.392;9.998;2022-08-19T03:51:38;18.80;99.90
9157;DHT22;4613;48.392;9.998;2022-08-19T03:54:12;18.70;99.90
9157;DHT22;4613;48.392;9.998;2022-08-19T03:56:45;18.70;99.90
9157;DHT22;4613;48.392;9.998;2022-08-19T03:59:20;18.50;99.90
9157;DHT22;4613;48.392;9.998;2022-08-19T04:01:53;18.50;99.90
9157;DHT22;4613;48.392;9.998;2022-08-19T04:04:25;18.70;99.90
9157;DHT22;4613;48.392;9.998;2022-08-19T04:06:56;18.90;99.90
9157;DHT22;4613;48.392;9.998;2022-08-19T04:09:27;18.90;99.90
9157;DHT22;4613;48.392;9.998;2022-08-19T04:11:58;19.00;99.90
9157;DHT22;4613;48.392;9.998;2022-08-19T04:14:29;18.80;99.90
9157;DHT22;4613;48.392;9.998;2022-08-19T04:17:02;18.80;99.90
9157;DHT22;4613;48.392;9.998;2022-08-19T04:19:35;18.60;99.90
9157;DHT22;4613;48.392;9.998;2022-08-19T04:22:07;18.50;99.90
9157;DHT22;4613;48.392;9.998;2022-08-19T04:24:38;18.50;99.90
9157;DHT22;4613;48.392;9.998;2022-08-19T04:27:09;18.40;99.90
9157;DHT22;4613;48.392;9.998;2022-08-19T04:29:39;18.40;99.90
9157;DHT22;4613;48.392;9.998;2022-08-19T04:32:10;18.40;99.90
9157;DHT22;4613;48.392;9.998;2022-08-19T04:34:41;18.70;99.90
9157;DHT22;4613;48.392;9.998;2022-08-19T04:37:13;18.90;99.90
9157;DHT22;4613;48.392;9.998;2022-08-19T04:39:45;19.20;99.90
9157;DHT22;4613;48.392;9.998;2022-08-19T04:42:34;19.20;99.90
9157;DHT22;4613;48.392;9.998;2022-08-19T04:45:13;19.30;99.90
9157;DHT22;4613;48.392;9.998;2022-08-19T04:47:44;19.30;99.90
9157;DHT22;4613;48.392;9.998;2022-08-19T04:50:18;19.30;99.90
9157;DHT22;4613;48.392;9.998;2022-08-19T04:52:51;19.20;99.90
9157;DHT22;4613;48.392;9.998;2022-08-19T04:55:22;19.20;99.90
9157;DHT22;4613;48.392;9.998;2022-08-19T04:57:55;19.20;99.90
9157;DHT22;4613;48.392;9.998;2022-08-19T05:00:26;19.20;99.90
9157;DHT22;4613;48.392;9.998;2022-08-19T05:02:57;19.20;99.90
9157;DHT22;4613;48.392;9.998;2022-08-19T05:05:28;18.80;99.90
9157;DHT22;4613;48.392;9.998;2022-08-19T05:08:01;18.60;99.90
9157;DHT22;4613;48.392;9.998;2022-08-19T05:10:36;18.50;99.90
9157;DHT22;4613;48.392;9.998;2022-08-19T05:13:07;18.70;99.90
9157;DHT22;4613;48.392;9.998;2022-08-19T05:15:39;18.90;99.90
9157;DHT22;4613;48.392;9.998;2022-08-19T05:18:10;19.00;99.90
9157;DHT22;4613;48.392;9.998;2022-08-19T05:21:06;19.00;99.90
9157;DHT22;4613;48.392;9.998;2022-08-19T05:23:56;19.20;99.90
9157;DHT22;4613;48.392;9.998;2022-08-19T05:26:28;19.30;99.90
9157;DHT22;4613;48.392;9.998;2022-08-19T05:28:59;19.10;99.90
9157;DHT22;4613;48.392;9.998;2022-08-19T05:31:30;19.00;99.90
9157;DHT22;4613;48.392;9.998;2022-08-19T05:34:02;18.80;99.90
9157;DHT22;4613;48.392;9.998;2022-08-19T05:36:37;18.90;99.90
9157;DHT22;4613;48.392;9.998;2022-08-19T05:39:15;18.90;99.90
9157;DHT22;4613;48.392;9.998;2022-08-19T05:41:49;19.20;99.90
9157;DHT22;4613;48.392;9.998;2022-08-19T05:44:20;19.20;99.90
9157;DHT22;4613;48.392;9.998;2022-08-19T05:46:53;19.10;99.90
9157;DHT22;4613;48.392;9.998;2022-08-19T05:49:25;18.80;99.90
9157;DHT22;4613;48.392;9.998;2022-08-19T05:51:56;19.20;99.90
9157;DHT22;4613;48.392;9.998;2022-08-19T05:54:27;19.20;99.90
9157;DHT22;4613;48.392;9.998;2022-08-19T05:56:58;19.20;99.90
9157;DHT22;4613;48.392;9.998;2022-08-19T05:59:30;19.00;99.90
9157;DHT22;4613;48.392;9.998;2022-08-19T06:02:02;19.10;99.90
9157;DHT22;4613;48.392;9.998;2022-08-19T06:04:34;19.20;99.90
9157;DHT22;4613;48.392;9.998;2022-08-19T06:07:05;19.00;99.90
9157;DHT22;4613;48.392;9.998;2022-08-19T06:09:37;19.20;99.90
9157;DHT22;4613;48.392;9.998;2022-08-19T06:12:10;19.30;99.90
9157;DHT22;4613;48.392;9.998;2022-08-19T06:14:41;19.40;99.90
9157;DHT22;4613;48.392;9.998;2022-08-19T06:17:12;19.20;99.90
9157;DHT22;4613;48.392;9.998;2022-08-19T06:19:44;19.10;99.90
9157;DHT22;4613;48.392;9.998;2022-08-19T06:22:15;19.10;99.90
9157;DHT22;4613;48.392;9.998;2022-08-19T06:24:45;19.00;99.90
9157;DHT22;4613;48.392;9.998;2022-08-19T06:27:16;19.00;99.90
9157;DHT22;4613;48.392;9.998;2022-08-19T06:29:47;19.00;99.90
9157;DHT22;4613;48.392;9.998;2022-08-19T06:32:18;19.10;99.90
9157;DHT22;4613;48.392;9.998;2022-08-19T06:34:49;19.10;99.90
9157;DHT22;4613;48.392;9.998;2022-08-19T06:37:20;19.20;99.90
9157;DHT22;4613;48.392;9.998;2022-08-19T06:39:52;19.10;99.90
9157;DHT22;4613;48.392;9.998;2022-08-19T06:42:23;19.10;99.90
9157;DHT22;4613;48.392;9.998;2022-08-19T06:44:54;19.00;99.90
9157;DHT22;4613;48.392;9.998;2022-08-19T06:47:25;19.10;99.90
9157;DHT22;4613;48.392;9.998;2022-08-19T06:49:57;19.00;99.90
9157;DHT22;4613;48.392;9.998;2022-08-19T06:52:34;19.10;99.90
9157;DHT22;4613;48.392;9.998;2022-08-19T06:55:06;19.10;99.90
9157;DHT22;4613;48.392;9.998;2022-08-19T06:57:37;19.20;99.90
9157;DHT22;4613;48.392;9.998;2022-08-19T07:00:09;19.20;99.90
9157;DHT22;4613;48.392;9.998;2022-08-19T07:02:47;19.20;99.90
9157;DHT22;4613;48.392;9.998;2022-08-19T07:05:19;19.20;99.90
9157;DHT22;4613;48.392;9.998;2022-08-19T07:07:50;19.20;99.90
9157;DHT22;4613;48.392;9.998;2022-08-19T07:10:21;19.20;99.90
9157;DHT22;4613;48.392;9.998;2022-08-19T07:12:52;19.10;99.90
9157;DHT22;4613;48.392;9.998;2022-08-19T07:15:24;19.00;99.90
9157;DHT22;4613;48.392;9.998;2022-08-19T07:17:55;18.90;99.90
9157;DHT22;4613;48.392;9.998;2022-08-19T07:20:26;18.80;99.90
9157;DHT22;4613;48.392;9.998;2022-08-19T07:22:57;18.60;99.90
9157;DHT22;4613;48.392;9.998;2022-08-19T07:25:28;18.60;99.90
9157;DHT22;4613;48.392;9.998;2022-08-19T07:27:59;18.50;99.90
9157;DHT22;4613;48.392;9.998;2022-08-19T07:30:30;18.60;99.90
9157;DHT22;4613;48.392;9.998;2022-08-19T07:33:01;18.70;99.90
9157;DHT22;4613;48.392;9.998;2022-08-19T07:35:32;18.80;99.90
9157;DHT22;4613;48.392;9.998;2022-08-19T07:38:03;18.70;99.90
9157;DHT22;4613;48.392;9.998;2022-08-19T07:40:34;18.80;99.90
9157;DHT22;4613;48.392;9.998;2022-08-19T07:43:05;18.70;99.90
9157;DHT22;4613;48.392;9.998;2022-08-19T07:45:36;18.60;99.90
9157;DHT22;4613;48.392;9.998;2022-08-19T07:48:07;18.60;99.90
9157;DHT22;4613;48.392;9.998;2022-08-19T07:50:38;18.80;99.90
9157;DHT22;4613;48.392;9.998;2022-08-19T07:53:09;18.80;99.90
9157;DHT22;4613;48.392;9.998;2022-08-19T07:55:40;18.60;99.90
9157;DHT22;4613;48.392;9.998;2022-08-19T07:58:14;18.70;99.90
9157;DHT22;4613;48.392;9.998;2022-08-19T08:00:48;18.70;99.90
9157;DHT22;4613;48.392;9.998;2022-08-19T08:03:21;18.60;99.90
9157;DHT22;4613;48.392;9.998;2022-08-19T08:06:14;18.80;99.90
9157;DHT22;4613;48.392;9.998;2022-08-19T08:09:04;18.70;99.90
9157;DHT22;4613;48.392;9.998;2022-08-19T08:11:51;18.90;99.90
9157;DHT22;4613;48.392;9.998;2022-08-19T08:14:33;18.70;99.90
9157;DHT22;4613;48.392;9.998;2022-08-19T08:17:05;18.80;99.90
9157;DHT22;4613;48.392;9.998;2022-08-19T08:19:37;19.00;99.90
9157;DHT22;4613;48.392;9.998;2022-08-19T08:22:11;18.90;99.90
9157;DHT22;4613;48.392;9.998;2022-08-19T08:25:08;18.90;99.90
9157;DHT22;4613;48.392;9.998;2022-08-19T08:27:41;18.60;99.90
9157;DHT22;4613;48.392;9.998;2022-08-19T08:30:22;18.40;99.90
9157;DHT22;4613;48.392;9.998;2022-08-19T08:32:53;18.70;99.90
9157;DHT22;4613;48.392;9.998;2022-08-19T08:35:25;18.70;99.90
9157;DHT22;4613;48.392;9.998;2022-08-19T08:37:56;18.70;99.90
9157;DHT22;4613;48.392;9.998;2022-08-19T08:40:55;18.70;99.90
9157;DHT22;4613;48.392;9.998;2022-08-19T08:43:38;18.70;99.90
9157;DHT22;4613;48.392;9.998;2022-08-19T08:46:20;18.80;99.90
9157;DHT22;4613;48.392;9.998;2022-08-19T08:49:18;18.80;99.90
9157;DHT22;4613;48.392;9.998;2022-08-19T08:52:06;18.80;99.90
9157;DHT22;4613;48.392;9.998;2022-08-19T08:54:42;18.80;99.90
9157;DHT22;4613;48.392;9.998;2022-08-19T08:57:38;18.70;99.90
9157;DHT22;4613;48.392;9.998;2022-08-19T09:00:12;18.70;99.90
9157;DHT22;4613;48.392;9.998;2022-08-19T09:02:45;18.80;99.90
9157;DHT22;4613;48.392;9.998;2022-08-19T09:05:16;18.70;99.90
9157;DHT22;4613;48.392;9.998;2022-08-19T09:08:00;18.80;99.90
9157;DHT22;4613;48.392;9.998;2022-08-19T09:10:50;18.90;99.90
9157;DHT22;4613;48.392;9.998;2022-08-19T09:13:41;18.80;99.90
9157;DHT22;4613;48.392;9.998;2022-08-19T09:16:16;18.90;99.90
9157;DHT22;4613;48.392;9.998;2022-08-19T09:18:52;18.80;99.90
9157;DHT22;4613;48.392;9.998;2022-08-19T09:21:25;18.80;99.90
9157;DHT22;4613;48.392;9.998;2022-08-19T09:23:58;18.70;99.90
9157;DHT22;4613;48.392;9.998;2022-08-19T09:26:30;18.80;99.90
9157;DHT22;4613;48.392;9.998;2022-08-19T09:29:03;18.90;99.90
9157;DHT22;4613;48.392;9.998;2022-08-19T09:31:36;18.90;99.90
9157;DHT22;4613;48.392;9.998;2022-08-19T09:34:07;18.90;99.90
9157;DHT22;4613;48.392;9.998;2022-08-19T09:36:39;18.90;99.90
9157;DHT22;4613;48.392;9.998;2022-08-19T09:39:11;18.90;99.90
9157;DHT22;4613;48.392;9.998;2022-08-19T09:41:42;18.90;99.90
9157;DHT22;4613;48.392;9.998;2022-08-19T09:44:13;18.90;99.90
9157;DHT22;4613;48.392;9.998;2022-08-19T09:46:44;18.70;99.90
9157;DHT22;4613;48.392;9.998;2022-08-19T09:49:20;18.60;99.90
9157;DHT22;4613;48.392;9.998;2022-08-19T09:51:54;18.70;99.90
9157;DHT22;4613;48.392;9.998;2022-08-19T09:54:26;18.90;99.90
9157;DHT22;4613;48.392;9.998;2022-08-19T09:56:59;18.90;99.90
9157;DHT22;4613;48.392;9.998;2022-08-19T09:59:33;18.70;99.90
9157;DHT22;4613;48.392;9.998;2022-08-19T10:02:04;18.90;99.90
9157;DHT22;4613;48.392;9.998;2022-08-19T10:04:35;19.00;99.90
9157;DHT22;4613;48.392;9.998;2022-08-19T10:07:25;19.00;99.90
9157;DHT22;4613;48.392;9.998;2022-08-19T10:09:56;18.80;99.90
9157;DHT22;4613;48.392;9.998;2022-08-19T10:12:27;19.00;99.90
9157;DHT22;4613;48.392;9.998;2022-08-19T10:14:59;19.00;99.90
9157;DHT22;4613;48.392;9.998;2022-08-19T10:17:30;19.10;99.90
9157;DHT22;4613;48.392;9.998;2022-08-19T10:20:04;19.10;99.90
9157;DHT22;4613;48.392;9.998;2022-08-19T10:22:35;18.90;99.90
9157;DHT22;4613;48.392;9.998;2022-08-19T10:25:08;19.00;99.90
9157;DHT22;4613;48.392;9.998;2022-08-19T10:27:39;18.90;99.90
9157;DHT22;4613;48.392;9.998;2022-08-19T10:30:10;18.70;99.90
9157;DHT22;4613;48.392;9.998;2022-08-19T10:32:41;18.70;99.90
9157;DHT22;4613;48.392;9.998;2022-08-19T10:35:13;18.80;99.90
9157;DHT22;4613;48.392;9.998;2022-08-19T10:37:45;18.70;99.90
9157;DHT22;4613;48.392;9.998;2022-08-19T10:40:15;18.70;99.90
9157;DHT22;4613;48.392;9.998;2022-08-19T10:42:46;18.80;99.90
9157;DHT22;4613;48.392;9.998;2022-08-19T10:45:17;19.00;99.90
9157;DHT22;4613;48.392;9.998;2022-08-19T10:47:49;19.10;99.90
9157;DHT22;4613;48.392;9.998;2022-08-19T10:50:20;19.00;99.90
9157;DHT22;4613;48.392;9.998;2022-08-19T10:53:09;19.10;99.90
9157;DHT22;4613;48.392;9.998;2022-08-19T10:55:40;19.00;99.90
9157;DHT22;4613;48.392;9.998;2022-08-19T10:58:29;19.00;99.90
9157;DHT22;4613;48.392;9.998;2022-08-19T11:01:00;19.00;99.90
9157;DHT22;4613;48.392;9.998;2022-08-19T11:03:31;19.20;99.90
9157;DHT22;4613;48.392;9.998;2022-08-19T11:06:05;19.10;99.90
9157;DHT22;4613;48.392;9.998;2022-08-19T11:08:37;19.10;99.90
9157;DHT22;4613;48.392;9.998;2022-08-19T11:11:08;19.20;99.90
9157;DHT22;4613;48.392;9.998;2022-08-19T11:13:40;19.00;99.90
9157;DHT22;4613;48.392;9.998;2022-08-19T11:16:14;18.90;99.90
9157;DHT22;4613;48.392;9.998;2022-08-19T11:18:49;18.50;99.90
9157;DHT22;4613;48.392;9.998;2022-08-19T11:21:26;18.50;99.90
9157;DHT22;4613;48.392;9.998;2022-08-19T11:24:00;18.60;99.90
9157;DHT22;4613;48.392;9.998;2022-08-19T11:26:32;18.50;99.90
9157;DHT22;4613;48.392;9.998;2022-08-19T11:29:04;18.40;99.90
9157;DHT22;4613;48.392;9.998;2022-08-19T11:31:37;18.50;99.90
9157;DHT22;4613;48.392;9.998;2022-08-19T11:34:16;18.40;99.90
9157;DHT22;4613;48.392;9.998;2022-08-19T11:36:48;18.30;99.90
9157;DHT22;4613;48.392;9.998;2022-08-19T11:39:21;18.30;99.90
9157;DHT22;4613;48.392;9.998;2022-08-19T11:41:52;18.30;99.90
9157;DHT22;4613;48.392;9.998;2022-08-19T11:44:23;18.10;99.90
9157;DHT22;4613;48.392;9.998;2022-08-19T11:46:54;18.10;99.90
9157;DHT22;4613;48.392;9.998;2022-08-19T11:49:26;18.20;99.90
9157;DHT22;4613;48.392;9.998;2022-08-19T11:51:57;18.30;99.90
9157;DHT22;4613;48.392;9.998;2022-08-19T11:54:28;18.30;99.90
9157;DHT22;4613;48.392;9.998;2022-08-19T11:57:02;18.20;99.90
9157;DHT22;4613;48.392;9.998;2022-08-19T11:59:33;18.20;99.90
9157;DHT22;4613;48.392;9.998;2022-08-19T12:02:03;18.20;99.90
9157;DHT22;4613;48.392;9.998;2022-08-19T12:04:34;18.20;99.90
9157;DHT22;4613;48.392;9.998;2022-08-19T12:07:05;18.40;99.90
9157;DHT22;4613;48.392;9.998;2022-08-19T12:09:37;18.60;99.90
9157;DHT22;4613;48.392;9.998;2022-08-19T12:12:09;18.60;99.90
9157;DHT22;4613;48.392;9.998;2022-08-19T12:14:40;18.70;99.90
9157;DHT22;4613;48.392;9.998;2022-08-19T12:17:11;18.60;99.90
9157;DHT22;4613;48.392;9.998;2022-08-19T12:19:43;18.60;99.90
9157;DHT22;4613;48.392;9.998;2022-08-19T12:22:15;18.70;99.90
9157;DHT22;4613;48.392;9.998;2022-08-19T12:24:46;18.80;99.90
9157;DHT22;4613;48.392;9.998;2022-08-19T12:27:18;18.70;99.90
9157;DHT22;4613;48.392;9.998;2022-08-19T12:29:49;18.80;99.90
9157;DHT22;4613;48.392;9.998;2022-08-19T12:32:22;18.70;99.90
9157;DHT22;4613;48.392;9.998;2022-08-19T12:34:55;18.60;99.90
9157;DHT22;4613;48.392;9.998;2022-08-19T12:37:27;18.50;99.90
9157;DHT22;4613;48.392;9.998;2022-08-19T12:39:58;18.50;99.90
9157;DHT22;4613;48.392;9.998;2022-08-19T12:42:29;18.60;99.90
9157;DHT22;4613;48.392;9.998;2022-08-19T12:45:01;18.70;99.90
9157;DHT22;4613;48.392;9.998;2022-08-19T12:47:32;18.70;99.90
9157;DHT22;4613;48.392;9.998;2022-08-19T12:50:04;18.70;99.90
9157;DHT22;4613;48.392;9.998;2022-08-19T12:52:37;18.80;99.90
9157;DHT22;4613;48.392;9.998;2022-08-19T12:55:09;18.80;99.90
9157;DHT22;4613;48.392;9.998;2022-08-19T12:57:41;18.80;99.90
9157;DHT22;4613;48.392;9.998;2022-08-19T13:00:15;18.80;99.90
9157;DHT22;4613;48.392;9.998;2022-08-19T13:02:48;18.70;99.90
9157;DHT22;4613;48.392;9.998;2022-08-19T13:05:25;18.80;99.90
9157;DHT22;4613;48.392;9.998;2022-08-19T13:07:58;19.00;99.90
9157;DHT22;4613;48.392;9.998;2022-08-19T13:10:32;19.00;99.90
9157;DHT22;4613;48.392;9.998;2022-08-19T13:13:08;18.80;99.90
9157;DHT22;4613;48.392;9.998;2022-08-19T13:15:41;18.90;99.90
9157;DHT22;4613;48.392;9.998;2022-08-19T13:18:13;19.00;99.90
9157;DHT22;4613;48.392;9.998;2022-08-19T13:20:44;19.00;99.90
9157;DHT22;4613;48.392;9.998;2022-08-19T13:23:16;18.90;99.90
9157;DHT22;4613;48.392;9.998;2022-08-19T13:25:56;18.80;99.90
9157;DHT22;4613;48.392;9.998;2022-08-19T13:28:28;18.90;99.90
9157;DHT22;4613;48.392;9.998;2022-08-19T13:31:21;18.70;99.90
9157;DHT22;4613;48.392;9.998;2022-08-19T13:34:11;18.60;99.90
9157;DHT22;4613;48.392;9.998;2022-08-19T13:36:42;18.60;99.90
9157;DHT22;4613;48.392;9.998;2022-08-19T13:39:13;18.60;99.90
9157;DHT22;4613;48.392;9.998;2022-08-19T13:41:45;18.60;99.90
9157;DHT22;4613;48.392;9.998;2022-08-19T13:44:20;18.50;99.90
9157;DHT22;4613;48.392;9.998;2022-08-19T13:46:51;18.50;99.90
9157;DHT22;4613;48.392;9.998;2022-08-19T13:49:23;18.40;99.90
9157;DHT22;4613;48.392;9.998;2022-08-19T13:51:54;18.40;99.90
9157;DHT22;4613;48.392;9.998;2022-08-19T13:54:25;18.60;99.90
9157;DHT22;4613;48.392;9.998;2022-08-19T13:56:57;18.40;99.90
9157;DHT22;4613;48.392;9.998;2022-08-19T13:59:28;18.30;99.90
9157;DHT22;4613;48.392;9.998;2022-08-19T14:01:59;18.40;99.90
9157;DHT22;4613;48.392;9.998;2022-08-19T14:04:31;18.50;99.90
9157;DHT22;4613;48.392;9.998;2022-08-19T14:07:03;18.60;99.90
9157;DHT22;4613;48.392;9.998;2022-08-19T14:09:35;18.60;99.90
9157;DHT22;4613;48.392;9.998;2022-08-19T14:12:06;18.50;99.90
9157;DHT22;4613;48.392;9.998;2022-08-19T14:14:38;18.70;99.90
9157;DHT22;4613;48.392;9.998;2022-08-19T14:17:09;18.70;99.90
9157;DHT22;4613;48.392;9.998;2022-08-19T14:19:40;18.80;99.90
9157;DHT22;4613;48.392;9.998;2022-08-19T14:22:12;18.70;99.90
9157;DHT22;4613;48.392;9.998;2022-08-19T14:24:43;18.60;99.90
9157;DHT22;4613;48.392;9.998;2022-08-19T14:27:14;18.60;99.90
9157;DHT22;4613;48.392;9.998;2022-08-19T14:29:45;18.40;99.90
9157;DHT22;4613;48.392;9.998;2022-08-19T14:32:16;18.40;99.90
9157;DHT22;4613;48.392;9.998;2022-08-19T14:34:47;18.30;99.90
9157;DHT22;4613;48.392;9.998;2022-08-19T14:37:18;18.20;99.90
9157;DHT22;4613;48.392;9.998;2022-08-19T14:39:49;18.40;99.90
9157;DHT22;4613;48.392;9.998;2022-08-19T14:42:20;18.60;99.90
9157;DHT22;4613;48.392;9.998;2022-08-19T14:44:51;18.70;99.90
9157;DHT22;4613;48.392;9.998;2022-08-19T14:47:22;18.70;99.90
9157;DHT22;4613;48.392;9.998;2022-08-19T14:49:53;18.50;99.90
9157;DHT22;4613;48.392;9.998;2022-08-19T14:52:24;18.50;99.90
9157;DHT22;4613;48.392;9.998;2022-08-19T14:54:56;18.50;99.90
9157;DHT22;4613;48.392;9.998;2022-08-19T14:57:27;18.40;99.90
9157;DHT22;4613;48.392;9.998;2022-08-19T14:59:58;18.60;99.90
9157;DHT22;4613;48.392;9.998;2022-08-19T15:02:31;18.50;99.90
9157;DHT22;4613;48.392;9.998;2022-08-19T15:05:02;18.50;99.90
9157;DHT22;4613;48.392;9.998;2022-08-19T15:07:33;18.40;99.90
9157;DHT22;4613;48.392;9.998;2022-08-19T15:10:05;18.40;99.90
9157;DHT22;4613;48.392;9.998;2022-08-19T15:12:38;18.60;99.90
9157;DHT22;4613;48.392;9.998;2022-08-19T15:15:13;18.50;99.90
9157;DHT22;4613;48.392;9.998;2022-08-19T15:17:44;18.40;99.90
9157;DHT22;4613;48.392;9.998;2022-08-19T15:20:19;18.60;99.90
9157;DHT22;4613;48.392;9.998;2022-08-19T15:22:51;18.70;99.90
9157;DHT22;4613;48.392;9.998;2022-08-19T15:25:22;18.50;99.90
9157;DHT22;4613;48.392;9.998;2022-08-19T15:27:53;18.50;99.90
9157;DHT22;4613;48.392;9.998;2022-08-19T15:30:26;18.50;99.90
9157;DHT22;4613;48.392;9.998;2022-08-19T15:32:59;18.50;99.90
9157;DHT22;4613;48.392;9.998;2022-08-19T15:35:30;18.40;99.90
9157;DHT22;4613;48.392;9.998;2022-08-19T15:38:01;18.40;99.90
9157;DHT22;4613;48.392;9.998;2022-08-19T15:40:32;18.60;99.90
9157;DHT22;4613;48.392;9.998;2022-08-19T15:43:03;18.70;99.90
9157;DHT22;4613;48.392;9.998;2022-08-19T15:45:34;18.70;99.90
9157;DHT22;4613;48.392;9.998;2022-08-19T15:48:05;18.60;99.90
9157;DHT22;4613;48.392;9.998;2022-08-19T15:50:36;18.60;99.90
9157;DHT22;4613;48.392;9.998;2022-08-19T15:53:10;18.50;99.90
9157;DHT22;4613;48.392;9.998;2022-08-19T15:55:43;18.50;99.90
9157;DHT22;4613;48.392;9.998;2022-08-19T15:58:15;18.60;99.90
9157;DHT22;4613;48.392;9.998;2022-08-19T16:01:06;18.50;99.90
9157;DHT22;4613;48.392;9.998;2022-08-19T16:03:57;18.40;99.90
9157;DHT22;4613;48.392;9.998;2022-08-19T16:06:53;18.40;99.90
9157;DHT22;4613;48.392;9.998;2022-08-19T16:09:27;18.40;99.90
9157;DHT22;4613;48.392;9.998;2022-08-19T16:12:00;18.70;99.90
9157;DHT22;4613;48.392;9.998;2022-08-19T16:14:34;18.40;99.90
9157;DHT22;4613;48.392;9.998;2022-08-19T16:17:05;18.30;99.90
9157;DHT22;4613;48.392;9.998;2022-08-19T16:19:36;18.50;99.90
9157;DHT22;4613;48.392;9.998;2022-08-19T16:22:08;18.50;99.90
9157;DHT22;4613;48.392;9.998;2022-08-19T16:24:39;18.50;99.90
9157;DHT22;4613;48.392;9.998;2022-08-19T16:27:10;18.60;99.90
9157;DHT22;4613;48.392;9.998;2022-08-19T16:29:41;18.30;99.90
9157;DHT22;4613;48.392;9.998;2022-08-19T16:32:12;18.30;99.90
9157;DHT22;4613;48.392;9.998;2022-08-19T16:34:43;18.20;99.90
9157;DHT22;4613;48.392;9.998;2022-08-19T16:37:15;18.10;99.90
9157;DHT22;4613;48.392;9.998;2022-08-19T16:39:47;18.10;99.90
9157;DHT22;4613;48.392;9.998;2022-08-19T16:42:18;18.00;99.90